sensor_id;sensor_type;location;lat;lon;timestamp;P1;durP1;ratioP1;P2;durP2;ratioP2
7108;SDS011;29079;41.930;25.558;2023-11-21T00:00:24;31.52;;;15.30;;
7108;SDS011;29079;41.930;25.558;2023-11-21T00:03:12;31.67;;;15.70;;
7108;SDS011;29079;41.930;25.558;2023-11-21T00:06:02;29.42;;;15.52;;
7108;SDS011;29079;41.930;25.558;2023-11-21T00:08:52;31.98;;;15.65;;
7108;SDS011;29079;41.930;25.558;2023-11-21T00:11:40;27.25;;;15.20;;
7108;SDS011;29079;41.930;25.558;2023-11-21T00:14:27;31.23;;;15.85;;
7108;SDS011;29079;41.930;25.558;2023-11-21T00:17:15;36.60;;;17.00;;
7108;SDS011;29079;41.930;25.558;2023-11-21T00:20:04;33.67;;;17.25;;
7108;SDS011;29079;41.930;25.558;2023-11-21T00:22:53;31.67;;;16.05;;
7108;SDS011;29079;41.930;25.558;2023-11-21T00:25:42;35.92;;;16.58;;
7108;SDS011;29079;41.930;25.558;2023-11-21T00:28:30;33.45;;;17.13;;
7108;SDS011;29079;41.930;25.558;2023-11-21T00:31:18;31.80;;;15.70;;
7108;SDS011;29079;41.930;25.558;2023-11-21T00:34:06;26.45;;;14.38;;
7108;SDS011;29079;41.930;25.558;2023-11-21T00:36:54;25.23;;;14.68;;
7108;SDS011;29079;41.930;25.558;2023-11-21T00:39:42;24.13;;;12.32;;
7108;SDS011;29079;41.930;25.558;2023-11-21T00:42:32;25.02;;;11.90;;
7108;SDS011;29079;41.930;25.558;2023-11-21T00:45:20;23.05;;;11.68;;
7108;SDS011;29079;41.930;25.558;2023-11-21T00:48:08;22.83;;;11.27;;
7108;SDS011;29079;41.930;25.558;2023-11-21T00:50:56;22.08;;;11.52;;
7108;SDS011;29079;41.930;25.558;2023-11-21T00:53:44;21.55;;;11.25;;
7108;SDS011;29079;41.930;25.558;2023-11-21T00:56:32;22.33;;;12.77;;
7108;SDS011;29079;41.930;25.558;2023-11-21T00:59:23;25.70;;;12.65;;
7108;SDS011;29079;41.930;25.558;2023-11-21T01:02:10;28.48;;;13.65;;
7108;SDS011;29079;41.930;25.558;2023-11-21T01:04:59;23.95;;;13.00;;
7108;SDS011;29079;41.930;25.558;2023-11-21T01:07:46;26.02;;;12.85;;
7108;SDS011;29079;41.930;25.558;2023-11-21T01:10:34;25.10;;;12.10;;
7108;SDS011;29079;41.930;25.558;2023-11-21T01:13:22;26.23;;;12.70;;
7108;SDS011;29079;41.930;25.558;2023-11-21T01:16:16;28.75;;;13.82;;
7108;SDS011;29079;41.930;25.558;2023-11-21T01:19:04;25.00;;;11.70;;
7108;SDS011;29079;41.930;25.558;2023-11-21T01:21:52;16.67;;;9.77;;
7108;SDS011;29079;41.930;25.558;2023-11-21T01:24:39;18.73;;;10.25;;
7108;SDS011;29079;41.930;25.558;2023-11-21T01:27:27;16.83;;;9.57;;
7108;SDS011;29079;41.930;25.558;2023-11-21T01:30:15;15.00;;;8.80;;
7108;SDS011;29079;41.930;25.558;2023-11-21T01:33:04;19.35;;;10.02;;
7108;SDS011;29079;41.930;25.558;2023-11-21T01:35:53;19.92;;;9.85;;
7108;SDS011;29079;41.930;25.558;2023-11-21T01:38:41;17.92;;;10.70;;
7108;SDS011;29079;41.930;25.558;2023-11-21T01:41:30;18.48;;;10.07;;
7108;SDS011;29079;41.930;25.558;2023-11-21T01:44:17;19.85;;;10.60;;
7108;SDS011;29079;41.930;25.558;2023-11-21T01:47:06;17.23;;;10.10;;
7108;SDS011;29079;41.930;25.558;2023-11-21T01:49:56;18.05;;;10.15;;
7108;SDS011;29079;41.930;25.558;2023-11-21T01:52:45;26.98;;;10.98;;
7108;SDS011;29079;41.930;25.558;2023-11-21T01:55:34;21.75;;;10.93;;
7108;SDS011;29079;41.930;25.558;2023-11-21T01:58:23;24.90;;;11.23;;
7108;SDS011;29079;41.930;25.558;2023-11-21T02:01:11;23.35;;;12.32;;
7108;SDS011;29079;41.930;25.558;2023-11-21T02:04:00;24.02;;;10.70;;
7108;SDS011;29079;41.930;25.558;2023-11-21T02:06:50;19.00;;;9.85;;
7108;SDS011;29079;41.930;25.558;2023-11-21T02:09:38;21.42;;;10.57;;
7108;SDS011;29079;41.930;25.558;2023-11-21T02:12:29;19.95;;;10.35;;
7108;SDS011;29079;41.930;25.558;2023-11-21T02:15:17;16.88;;;8.25;;
7108;SDS011;29079;41.930;25.558;2023-11-21T02:18:06;17.38;;;9.07;;
7108;SDS011;29079;41.930;25.558;2023-11-21T02:20:56;17.35;;;8.13;;
7108;SDS011;29079;41.930;25.558;2023-11-21T02:23:45;12.77;;;8.02;;
7108;SDS011;29079;41.930;25.558;2023-11-21T02:26:33;10.07;;;6.25;;
7108;SDS011;29079;41.930;25.558;2023-11-21T02:29:21;9.95;;;6.35;;
7108;SDS011;29079;41.930;25.558;2023-11-21T02:32:14;13.63;;;7.40;;
7108;SDS011;29079;41.930;25.558;2023-11-21T02:35:05;10.50;;;6.18;;
7108;SDS011;29079;41.930;25.558;2023-11-21T02:37:54;15.98;;;6.68;;
7108;SDS011;29079;41.930;25.558;2023-11-21T02:40:44;14.60;;;6.32;;
7108;SDS011;29079;41.930;25.558;2023-11-21T02:43:32;22.08;;;8.43;;
7108;SDS011;29079;41.930;25.558;2023-11-21T02:46:20;12.80;;;6.75;;
7108;SDS011;29079;41.930;25.558;2023-11-21T02:49:08;11.32;;;7.05;;
7108;SDS011;29079;41.930;25.558;2023-11-21T02:51:56;13.15;;;7.80;;
7108;SDS011;29079;41.930;25.558;2023-11-21T02:54:44;13.90;;;7.82;;
7108;SDS011;29079;41.930;25.558;2023-11-21T02:57:34;14.55;;;7.75;;
7108;SDS011;29079;41.930;25.558;2023-11-21T03:00:22;17.15;;;8.00;;
7108;SDS011;29079;41.930;25.558;2023-11-21T03:03:12;23.70;;;10.38;;
7108;SDS011;29079;41.930;25.558;2023-11-21T03:06:01;18.38;;;9.32;;
7108;SDS011;29079;41.930;25.558;2023-11-21T03:08:49;18.33;;;9.80;;
7108;SDS011;29079;41.930;25.558;2023-11-21T03:11:37;17.17;;;9.77;;
7108;SDS011;29079;41.930;25.558;2023-11-21T03:14:26;18.85;;;9.18;;
7108;SDS011;29079;41.930;25.558;2023-11-21T03:17:14;17.17;;;8.77;;
7108;SDS011;29079;41.930;25.558;2023-11-21T03:20:02;20.13;;;9.70;;
7108;SDS011;29079;41.930;25.558;2023-11-21T03:22:51;20.38;;;10.73;;
7108;SDS011;29079;41.930;25.558;2023-11-21T03:25:39;17.92;;;7.97;;
7108;SDS011;29079;41.930;25.558;2023-11-21T03:28:27;18.90;;;10.15;;
7108;SDS011;29079;41.930;25.558;2023-11-21T03:31:17;23.45;;;9.77;;
7108;SDS011;29079;41.930;25.558;2023-11-21T03:34:06;18.40;;;9.68;;
7108;SDS011;29079;41.930;25.558;2023-11-21T03:36:54;18.63;;;9.85;;
7108;SDS011;29079;41.930;25.558;2023-11-21T03:39:42;20.42;;;10.13;;
7108;SDS011;29079;41.930;25.558;2023-11-21T03:42:30;22.13;;;10.80;;
7108;SDS011;29079;41.930;25.558;2023-11-21T03:45:18;20.95;;;9.95;;
7108;SDS011;29079;41.930;25.558;2023-11-21T03:48:08;20.08;;;11.07;;
7108;SDS011;29079;41.930;25.558;2023-11-21T03:50:56;19.95;;;11.15;;
7108;SDS011;29079;41.930;25.558;2023-11-21T03:53:44;18.65;;;10.57;;
7108;SDS011;29079;41.930;25.558;2023-11-21T03:56:32;19.10;;;11.52;;
7108;SDS011;29079;41.930;25.558;2023-11-21T03:59:20;19.30;;;11.25;;
7108;SDS011;29079;41.930;25.558;2023-11-21T04:02:10;23.77;;;12.02;;
7108;SDS011;29079;41.930;25.558;2023-11-21T04:05:00;28.13;;;11.68;;
7108;SDS011;29079;41.930;25.558;2023-11-21T04:07:48;18.13;;;11.35;;
7108;SDS011;29079;41.930;25.558;2023-11-21T04:10:36;21.23;;;11.82;;
7108;SDS011;29079;41.930;25.558;2023-11-21T04:13:26;24.13;;;12.63;;
7108;SDS011;29079;41.930;25.558;2023-11-21T04:16:13;23.30;;;12.73;;
7108;SDS011;29079;41.930;25.558;2023-11-21T04:19:02;21.23;;;13.20;;
7108;SDS011;29079;41.930;25.558;2023-11-21T04:21:51;20.90;;;10.50;;
7108;SDS011;29079;41.930;25.558;2023-11-21T04:24:39;20.90;;;11.57;;
7108;SDS011;29079;41.930;25.558;2023-11-21T04:27:29;20.27;;;9.10;;
7108;SDS011;29079;41.930;25.558;2023-11-21T04:30:17;15.55;;;8.35;;
7108;SDS011;29079;41.930;25.558;2023-11-21T04:33:05;14.55;;;7.80;;
7108;SDS011;29079;41.930;25.558;2023-11-21T04:35:54;10.95;;;7.57;;
7108;SDS011;29079;41.930;25.558;2023-11-21T04:38:44;12.90;;;8.02;;
7108;SDS011;29079;41.930;25.558;2023-11-21T04:41:32;16.88;;;8.13;;
7108;SDS011;29079;41.930;25.558;2023-11-21T04:44:20;11.27;;;7.63;;
7108;SDS011;29079;41.930;25.558;2023-11-21T04:47:09;17.63;;;8.80;;
7108;SDS011;29079;41.930;25.558;2023-11-21T04:49:57;17.27;;;7.95;;
7108;SDS011;29079;41.930;25.558;2023-11-21T04:52:45;15.07;;;7.93;;
7108;SDS011;29079;41.930;25.558;2023-11-21T04:55:34;13.93;;;7.22;;
7108;SDS011;29079;41.930;25.558;2023-11-21T04:58:22;16.80;;;6.63;;
7108;SDS011;29079;41.930;25.558;2023-11-21T05:01:11;12.55;;;7.72;;
7108;SDS011;29079;41.930;25.558;2023-11-21T05:03:59;11.65;;;7.22;;
7108;SDS011;29079;41.930;25.558;2023-11-21T05:06:48;16.95;;;8.52;;
7108;SDS011;29079;41.930;25.558;2023-11-21T05:09:36;13.27;;;8.25;;
7108;SDS011;29079;41.930;25.558;2023-11-21T05:12:25;12.55;;;7.22;;
7108;SDS011;29079;41.930;25.558;2023-11-21T05:15:14;23.00;;;12.98;;
7108;SDS011;29079;41.930;25.558;2023-11-21T05:18:03;52.50;;;29.75;;
7108;SDS011;29079;41.930;25.558;2023-11-21T05:20:51;57.35;;;31.05;;
7108;SDS011;29079;41.930;25.558;2023-11-21T05:23:40;55.05;;;28.40;;
7108;SDS011;29079;41.930;25.558;2023-11-21T05:26:28;35.75;;;21.05;;
7108;SDS011;29079;41.930;25.558;2023-11-21T05:29:17;26.98;;;15.40;;
7108;SDS011;29079;41.930;25.558;2023-11-21T05:32:05;28.05;;;14.50;;
7108;SDS011;29079;41.930;25.558;2023-11-21T05:34:54;35.25;;;16.08;;
7108;SDS011;29079;41.930;25.558;2023-11-21T05:37:42;32.47;;;15.15;;
7108;SDS011;29079;41.930;25.558;2023-11-21T05:40:30;33.05;;;15.23;;
7108;SDS011;29079;41.930;25.558;2023-11-21T05:43:19;47.60;;;19.15;;
7108;SDS011;29079;41.930;25.558;2023-11-21T05:46:08;51.10;;;25.65;;
7108;SDS011;29079;41.930;25.558;2023-11-21T05:48:56;56.70;;;23.48;;
7108;SDS011;29079;41.930;25.558;2023-11-21T05:51:44;53.42;;;23.25;;
7108;SDS011;29079;41.930;25.558;2023-11-21T05:54:32;52.70;;;25.48;;
7108;SDS011;29079;41.930;25.558;2023-11-21T05:57:20;112.78;;;47.65;;
7108;SDS011;29079;41.930;25.558;2023-11-21T06:00:08;89.82;;;38.58;;
7108;SDS011;29079;41.930;25.558;2023-11-21T06:03:00;106.47;;;41.72;;
7108;SDS011;29079;41.930;25.558;2023-11-21T06:05:49;136.52;;;53.60;;
7108;SDS011;29079;41.930;25.558;2023-11-21T06:08:37;118.93;;;47.50;;
7108;SDS011;29079;41.930;25.558;2023-11-21T06:11:25;85.72;;;35.95;;
7108;SDS011;29079;41.930;25.558;2023-11-21T06:14:13;67.93;;;30.63;;
7108;SDS011;29079;41.930;25.558;2023-11-21T06:17:01;53.40;;;26.75;;
7108;SDS011;29079;41.930;25.558;2023-11-21T06:19:50;58.97;;;24.98;;
7108;SDS011;29079;41.930;25.558;2023-11-21T06:22:39;52.70;;;26.05;;
7108;SDS011;29079;41.930;25.558;2023-11-21T06:25:28;44.25;;;22.17;;
7108;SDS011;29079;41.930;25.558;2023-11-21T06:28:19;45.40;;;21.83;;
7108;SDS011;29079;41.930;25.558;2023-11-21T06:31:07;63.90;;;31.17;;
7108;SDS011;29079;41.930;25.558;2023-11-21T06:33:57;60.08;;;29.10;;
7108;SDS011;29079;41.930;25.558;2023-11-21T06:36:47;60.08;;;32.90;;
7108;SDS011;29079;41.930;25.558;2023-11-21T06:39:35;56.58;;;29.95;;
7108;SDS011;29079;41.930;25.558;2023-11-21T06:42:23;52.40;;;26.30;;
7108;SDS011;29079;41.930;25.558;2023-11-21T06:45:11;40.25;;;23.45;;
7108;SDS011;29079;41.930;25.558;2023-11-21T06:47:59;39.10;;;23.58;;
7108;SDS011;29079;41.930;25.558;2023-11-21T06:50:49;49.08;;;24.77;;
7108;SDS011;29079;41.930;25.558;2023-11-21T06:53:39;50.03;;;26.23;;
7108;SDS011;29079;41.930;25.558;2023-11-21T06:56:27;47.33;;;26.73;;
7108;SDS011;29079;41.930;25.558;2023-11-21T06:59:18;41.47;;;24.02;;
7108;SDS011;29079;41.930;25.558;2023-11-21T07:02:06;42.70;;;23.02;;
7108;SDS011;29079;41.930;25.558;2023-11-21T07:04:54;36.97;;;20.70;;
7108;SDS011;29079;41.930;25.558;2023-11-21T07:07:42;47.25;;;21.02;;
7108;SDS011;29079;41.930;25.558;2023-11-21T07:10:33;42.85;;;20.15;;
7108;SDS011;29079;41.930;25.558;2023-11-21T07:13:21;43.28;;;19.63;;
7108;SDS011;29079;41.930;25.558;2023-11-21T07:16:09;40.55;;;20.70;;
7108;SDS011;29079;41.930;25.558;2023-11-21T07:18:57;38.38;;;16.02;;
7108;SDS011;29079;41.930;25.558;2023-11-21T07:21:45;25.25;;;14.05;;
7108;SDS011;29079;41.930;25.558;2023-11-21T07:24:33;24.13;;;13.15;;
7108;SDS011;29079;41.930;25.558;2023-11-21T07:27:22;20.00;;;10.10;;
7108;SDS011;29079;41.930;25.558;2023-11-21T07:30:11;16.80;;;10.73;;
7108;SDS011;29079;41.930;25.558;2023-11-21T07:33:00;17.55;;;10.32;;
7108;SDS011;29079;41.930;25.558;2023-11-21T07:35:48;16.02;;;9.45;;
7108;SDS011;29079;41.930;25.558;2023-11-21T07:38:36;14.48;;;8.07;;
7108;SDS011;29079;41.930;25.558;2023-11-21T07:41:24;20.02;;;10.20;;
7108;SDS011;29079;41.930;25.558;2023-11-21T07:44:18;16.23;;;9.57;;
7108;SDS011;29079;41.930;25.558;2023-11-21T07:47:06;17.88;;;8.35;;
7108;SDS011;29079;41.930;25.558;2023-11-21T07:49:55;16.83;;;8.38;;
7108;SDS011;29079;41.930;25.558;2023-11-21T07:52:43;18.25;;;7.10;;
7108;SDS011;29079;41.930;25.558;2023-11-21T07:55:32;17.38;;;7.20;;
7108;SDS011;29079;41.930;25.558;2023-11-21T07:58:20;21.90;;;7.65;;
7108;SDS011;29079;41.930;25.558;2023-11-21T08:01:09;13.38;;;6.63;;
7108;SDS011;29079;41.930;25.558;2023-11-21T08:03:57;16.42;;;8.18;;
7108;SDS011;29079;41.930;25.558;2023-11-21T08:06:50;13.32;;;7.18;;
7108;SDS011;29079;41.930;25.558;2023-11-21T08:09:38;14.55;;;7.43;;
7108;SDS011;29079;41.930;25.558;2023-11-21T08:12:27;19.60;;;8.60;;
7108;SDS011;29079;41.930;25.558;2023-11-21T08:15:15;13.38;;;7.05;;
7108;SDS011;29079;41.930;25.558;2023-11-21T08:18:04;18.70;;;7.80;;
7108;SDS011;29079;41.930;25.558;2023-11-21T08:20:54;12.25;;;7.00;;
7108;SDS011;29079;41.930;25.558;2023-11-21T08:23:42;12.27;;;5.88;;
7108;SDS011;29079;41.930;25.558;2023-11-21T08:26:31;11.52;;;6.35;;
7108;SDS011;29079;41.930;25.558;2023-11-21T08:29:19;12.30;;;6.50;;
7108;SDS011;29079;41.930;25.558;2023-11-21T08:32:07;10.38;;;6.47;;
7108;SDS011;29079;41.930;25.558;2023-11-21T08:34:57;50.72;;;11.65;;
7108;SDS011;29079;41.930;25.558;2023-11-21T08:37:46;23.98;;;7.95;;
7108;SDS011;29079;41.930;25.558;2023-11-21T08:40:34;19.95;;;8.38;;
7108;SDS011;29079;41.930;25.558;2023-11-21T08:43:22;19.60;;;8.07;;
7108;SDS011;29079;41.930;25.558;2023-11-21T08:46:11;13.02;;;7.25;;
7108;SDS011;29079;41.930;25.558;2023-11-21T08:49:00;14.45;;;6.63;;
7108;SDS011;29079;41.930;25.558;2023-11-21T08:51:50;14.63;;;6.85;;
7108;SDS011;29079;41.930;25.558;2023-11-21T08:54:39;8.15;;;6.05;;
7108;SDS011;29079;41.930;25.558;2023-11-21T08:57:27;10.18;;;6.43;;
7108;SDS011;29079;41.930;25.558;2023-11-21T09:00:16;8.60;;;5.13;;
7108;SDS011;29079;41.930;25.558;2023-11-21T09:03:05;11.45;;;6.18;;
7108;SDS011;29079;41.930;25.558;2023-11-21T09:05:55;9.30;;;5.10;;
7108;SDS011;29079;41.930;25.558;2023-11-21T09:08:46;11.75;;;6.40;;
7108;SDS011;29079;41.930;25.558;2023-11-21T09:11:34;13.02;;;5.28;;
7108;SDS011;29079;41.930;25.558;2023-11-21T09:14:23;5.60;;;4.40;;
7108;SDS011;29079;41.930;25.558;2023-11-21T09:17:11;9.18;;;4.90;;
7108;SDS011;29079;41.930;25.558;2023-11-21T09:20:00;9.15;;;4.80;;
7108;SDS011;29079;41.930;25.558;2023-11-21T09:22:52;8.07;;;4.55;;
7108;SDS011;29079;41.930;25.558;2023-11-21T09:25:42;8.13;;;4.88;;
7108;SDS011;29079;41.930;25.558;2023-11-21T09:28:32;6.53;;;4.22;;
7108;SDS011;29079;41.930;25.558;2023-11-21T09:31:21;11.63;;;5.07;;
7108;SDS011;29079;41.930;25.558;2023-11-21T09:34:10;11.10;;;5.10;;
7108;SDS011;29079;41.930;25.558;2023-11-21T09:36:58;10.25;;;6.03;;
7108;SDS011;29079;41.930;25.558;2023-11-21T09:39:46;13.23;;;5.53;;
7108;SDS011;29079;41.930;25.558;2023-11-21T09:42:38;12.52;;;7.60;;
7108;SDS011;29079;41.930;25.558;2023-11-21T09:45:28;14.60;;;6.90;;
7108;SDS011;29079;41.930;25.558;2023-11-21T09:48:20;10.93;;;5.50;;
7108;SDS011;29079;41.930;25.558;2023-11-21T09:51:08;11.18;;;6.05;;
7108;SDS011;29079;41.930;25.558;2023-11-21T09:53:59;9.90;;;4.68;;
7108;SDS011;29079;41.930;25.558;2023-11-21T09:56:50;7.32;;;4.38;;
7108;SDS011;29079;41.930;25.558;2023-11-21T09:59:41;9.45;;;4.57;;
7108;SDS011;29079;41.930;25.558;2023-11-21T10:02:32;9.70;;;4.50;;
7108;SDS011;29079;41.930;25.558;2023-11-21T10:05:24;10.75;;;4.07;;
7108;SDS011;29079;41.930;25.558;2023-11-21T10:08:14;8.82;;;4.20;;
7108;SDS011;29079;41.930;25.558;2023-11-21T10:11:03;9.50;;;4.97;;
7108;SDS011;29079;41.930;25.558;2023-11-21T10:13:53;7.55;;;4.25;;
7108;SDS011;29079;41.930;25.558;2023-11-21T10:16:45;5.88;;;3.13;;
7108;SDS011;29079;41.930;25.558;2023-11-21T10:19:35;7.20;;;3.50;;
7108;SDS011;29079;41.930;25.558;2023-11-21T10:22:25;6.13;;;3.60;;
7108;SDS011;29079;41.930;25.558;2023-11-21T10:25:13;4.78;;;3.05;;
7108;SDS011;29079;41.930;25.558;2023-11-21T10:28:03;3.22;;;2.80;;
7108;SDS011;29079;41.930;25.558;2023-11-21T10:30:53;5.65;;;3.00;;
7108;SDS011;29079;41.930;25.558;2023-11-21T10:33:42;5.32;;;3.88;;
7108;SDS011;29079;41.930;25.558;2023-11-21T10:36:30;7.03;;;3.70;;
7108;SDS011;29079;41.930;25.558;2023-11-21T10:39:20;4.63;;;3.25;;
7108;SDS011;29079;41.930;25.558;2023-11-21T10:42:10;7.15;;;3.53;;
7108;SDS011;29079;41.930;25.558;2023-11-21T10:44:58;4.65;;;3.17;;
7108;SDS011;29079;41.930;25.558;2023-11-21T10:47:46;6.95;;;4.10;;
7108;SDS011;29079;41.930;25.558;2023-11-21T10:50:36;10.68;;;3.95;;
7108;SDS011;29079;41.930;25.558;2023-11-21T10:53:28;4.70;;;3.40;;
7108;SDS011;29079;41.930;25.558;2023-11-21T10:56:18;10.32;;;4.25;;
7108;SDS011;29079;41.930;25.558;2023-11-21T10:59:07;4.97;;;3.55;;
7108;SDS011;29079;41.930;25.558;2023-11-21T11:02:01;4.68;;;2.70;;
7108;SDS011;29079;41.930;25.558;2023-11-21T11:04:57;11.75;;;5.25;;
7108;SDS011;29079;41.930;25.558;2023-11-21T11:07:50;10.38;;;4.32;;
7108;SDS011;29079;41.930;25.558;2023-11-21T11:10:41;6.75;;;3.80;;
7108;SDS011;29079;41.930;25.558;2023-11-21T11:13:29;4.82;;;3.10;;
7108;SDS011;29079;41.930;25.558;2023-11-21T11:16:18;9.52;;;3.97;;
7108;SDS011;29079;41.930;25.558;2023-11-21T11:19:06;7.70;;;3.25;;
7108;SDS011;29079;41.930;25.558;2023-11-21T11:22:07;10.73;;;6.35;;
7108;SDS011;29079;41.930;25.558;2023-11-21T11:25:21;8.23;;;5.07;;
7108;SDS011;29079;41.930;25.558;2023-11-21T11:31:10;14.30;;;5.57;;
7108;SDS011;29079;41.930;25.558;2023-11-21T11:34:08;12.10;;;6.65;;
7108;SDS011;29079;41.930;25.558;2023-11-21T11:37:08;15.10;;;5.93;;
7108;SDS011;29079;41.930;25.558;2023-11-21T11:39:57;11.32;;;6.18;;
7108;SDS011;29079;41.930;25.558;2023-11-21T11:42:58;7.30;;;5.28;;
7108;SDS011;29079;41.930;25.558;2023-11-21T11:45:48;16.40;;;6.97;;
7108;SDS011;29079;41.930;25.558;2023-11-21T11:48:38;6.97;;;4.63;;
7108;SDS011;29079;41.930;25.558;2023-11-21T11:51:27;14.20;;;5.80;;
7108;SDS011;29079;41.930;25.558;2023-11-21T11:54:15;12.15;;;7.18;;
7108;SDS011;29079;41.930;25.558;2023-11-21T11:57:23;8.48;;;5.55;;
7108;SDS011;29079;41.930;25.558;2023-11-21T12:00:17;11.60;;;6.82;;
7108;SDS011;29079;41.930;25.558;2023-11-21T12:03:07;9.32;;;5.28;;
7108;SDS011;29079;41.930;25.558;2023-11-21T12:05:57;16.42;;;5.75;;
7108;SDS011;29079;41.930;25.558;2023-11-21T12:08:45;6.95;;;4.13;;
7108;SDS011;29079;41.930;25.558;2023-11-21T12:11:33;18.20;;;7.45;;
7108;SDS011;29079;41.930;25.558;2023-11-21T12:14:21;9.60;;;5.30;;
7108;SDS011;29079;41.930;25.558;2023-11-21T12:17:11;9.55;;;5.30;;
7108;SDS011;29079;41.930;25.558;2023-11-21T12:20:01;6.75;;;4.38;;
7108;SDS011;29079;41.930;25.558;2023-11-21T12:22:51;6.20;;;4.47;;
7108;SDS011;29079;41.930;25.558;2023-11-21T12:25:40;4.95;;;3.90;;
7108;SDS011;29079;41.930;25.558;2023-11-21T12:28:29;7.70;;;3.97;;
7108;SDS011;29079;41.930;25.558;2023-11-21T12:31:17;3.90;;;3.35;;
7108;SDS011;29079;41.930;25.558;2023-11-21T12:34:09;5.22;;;3.85;;
7108;SDS011;29079;41.930;25.558;2023-11-21T12:36:57;6.75;;;4.72;;
7108;SDS011;29079;41.930;25.558;2023-11-21T12:39:46;7.55;;;4.40;;
7108;SDS011;29079;41.930;25.558;2023-11-21T12:42:35;5.35;;;3.95;;
7108;SDS011;29079;41.930;25.558;2023-11-21T12:45:24;6.50;;;4.78;;
7108;SDS011;29079;41.930;25.558;2023-11-21T12:48:13;10.82;;;6.93;;
7108;SDS011;29079;41.930;25.558;2023-11-21T12:51:05;6.30;;;4.93;;
7108;SDS011;29079;41.930;25.558;2023-11-21T12:53:54;5.28;;;3.88;;
7108;SDS011;29079;41.930;25.558;2023-11-21T12:56:44;6.38;;;4.43;;
7108;SDS011;29079;41.930;25.558;2023-11-21T12:59:35;5.28;;;3.78;;
7108;SDS011;29079;41.930;25.558;2023-11-21T13:02:25;17.05;;;6.63;;
7108;SDS011;29079;41.930;25.558;2023-11-21T13:05:14;6.95;;;4.38;;
7108;SDS011;29079;41.930;25.558;2023-11-21T13:08:12;5.70;;;4.15;;
7108;SDS011;29079;41.930;25.558;2023-11-21T13:11:05;8.63;;;5.53;;
7108;SDS011;29079;41.930;25.558;2023-11-21T13:13:53;8.00;;;4.18;;
7108;SDS011;29079;41.930;25.558;2023-11-21T13:16:42;7.57;;;4.85;;
7108;SDS011;29079;41.930;25.558;2023-11-21T13:19:33;9.93;;;5.95;;
7108;SDS011;29079;41.930;25.558;2023-11-21T13:22:21;7.13;;;5.30;;
7108;SDS011;29079;41.930;25.558;2023-11-21T13:25:12;6.75;;;5.07;;
7108;SDS011;29079;41.930;25.558;2023-11-21T13:28:00;8.07;;;5.13;;
7108;SDS011;29079;41.930;25.558;2023-11-21T13:30:49;8.20;;;5.68;;
7108;SDS011;29079;41.930;25.558;2023-11-21T13:33:38;8.20;;;5.60;;
7108;SDS011;29079;41.930;25.558;2023-11-21T13:36:29;10.05;;;5.13;;
7108;SDS011;29079;41.930;25.558;2023-11-21T13:39:19;7.20;;;5.53;;
7108;SDS011;29079;41.930;25.558;2023-11-21T13:42:09;12.82;;;5.00;;
7108;SDS011;29079;41.930;25.558;2023-11-21T13:44:57;9.80;;;6.32;;
7108;SDS011;29079;41.930;25.558;2023-11-21T13:47:45;8.88;;;6.05;;
7108;SDS011;29079;41.930;25.558;2023-11-21T13:50:33;7.75;;;5.68;;
7108;SDS011;29079;41.930;25.558;2023-11-21T13:53:21;7.53;;;5.60;;
7108;SDS011;29079;41.930;25.558;2023-11-21T13:56:09;7.00;;;5.18;;
7108;SDS011;29079;41.930;25.558;2023-11-21T13:59:00;5.72;;;5.13;;
7108;SDS011;29079;41.930;25.558;2023-11-21T14:02:03;6.00;;;5.40;;
7108;SDS011;29079;41.930;25.558;2023-11-21T14:05:04;7.10;;;5.38;;
7108;SDS011;29079;41.930;25.558;2023-11-21T14:07:55;8.45;;;4.78;;
7108;SDS011;29079;41.930;25.558;2023-11-21T14:10:49;7.07;;;5.60;;
7108;SDS011;29079;41.930;25.558;2023-11-21T14:13:41;8.18;;;5.68;;
7108;SDS011;29079;41.930;25.558;2023-11-21T14:16:34;8.25;;;6.78;;
7108;SDS011;29079;41.930;25.558;2023-11-21T14:19:22;8.38;;;6.00;;
7108;SDS011;29079;41.930;25.558;2023-11-21T14:22:13;12.05;;;7.18;;
7108;SDS011;29079;41.930;25.558;2023-11-21T14:25:03;9.82;;;6.03;;
7108;SDS011;29079;41.930;25.558;2023-11-21T14:27:52;9.88;;;6.68;;
7108;SDS011;29079;41.930;25.558;2023-11-21T14:30:39;10.52;;;6.22;;
7108;SDS011;29079;41.930;25.558;2023-11-21T14:33:30;13.25;;;5.78;;
7108;SDS011;29079;41.930;25.558;2023-11-21T14:36:17;6.30;;;5.60;;
7108;SDS011;29079;41.930;25.558;2023-11-21T14:39:06;8.05;;;5.47;;
7108;SDS011;29079;41.930;25.558;2023-11-21T14:41:59;12.73;;;7.13;;
7108;SDS011;29079;41.930;25.558;2023-11-21T14:44:49;9.18;;;6.50;;
7108;SDS011;29079;41.930;25.558;2023-11-21T14:47:38;12.25;;;6.82;;
7108;SDS011;29079;41.930;25.558;2023-11-21T14:50:33;12.45;;;6.47;;
7108;SDS011;29079;41.930;25.558;2023-11-21T14:53:55;10.75;;;6.30;;
7108;SDS011;29079;41.930;25.558;2023-11-21T14:56:46;10.20;;;6.88;;
7108;SDS011;29079;41.930;25.558;2023-11-21T14:59:34;9.23;;;5.80;;
7108;SDS011;29079;41.930;25.558;2023-11-21T15:02:22;9.82;;;6.38;;
7108;SDS011;29079;41.930;25.558;2023-11-21T15:05:30;8.10;;;5.97;;
7108;SDS011;29079;41.930;25.558;2023-11-21T15:08:23;7.50;;;5.78;;
7108;SDS011;29079;41.930;25.558;2023-11-21T15:11:16;7.60;;;5.85;;
7108;SDS011;29079;41.930;25.558;2023-11-21T15:14:03;8.50;;;6.28;;
7108;SDS011;29079;41.930;25.558;2023-11-21T15:16:54;10.20;;;7.05;;
7108;SDS011;29079;41.930;25.558;2023-11-21T15:19:46;7.47;;;5.80;;
7108;SDS011;29079;41.930;25.558;2023-11-21T15:22:34;10.13;;;6.10;;
7108;SDS011;29079;41.930;25.558;2023-11-21T15:25:25;10.75;;;5.95;;
7108;SDS011;29079;41.930;25.558;2023-11-21T15:28:13;12.15;;;7.85;;
7108;SDS011;29079;41.930;25.558;2023-11-21T15:31:00;15.13;;;7.88;;
7108;SDS011;29079;41.930;25.558;2023-11-21T15:33:49;11.70;;;7.93;;
7108;SDS011;29079;41.930;25.558;2023-11-21T15:36:37;14.57;;;7.75;;
7108;SDS011;29079;41.930;25.558;2023-11-21T15:39:25;14.77;;;8.30;;
7108;SDS011;29079;41.930;25.558;2023-11-21T15:42:17;20.13;;;9.15;;
7108;SDS011;29079;41.930;25.558;2023-11-21T15:45:06;16.50;;;8.93;;
7108;SDS011;29079;41.930;25.558;2023-11-21T15:47:55;12.07;;;8.50;;
7108;SDS011;29079;41.930;25.558;2023-11-21T15:50:45;14.63;;;9.13;;
7108;SDS011;29079;41.930;25.558;2023-11-21T15:53:33;16.08;;;9.27;;
7108;SDS011;29079;41.930;25.558;2023-11-21T15:56:21;14.90;;;9.10;;
7108;SDS011;29079;41.930;25.558;2023-11-21T15:59:11;14.13;;;8.77;;
7108;SDS011;29079;41.930;25.558;2023-11-21T16:02:00;13.80;;;9.90;;
7108;SDS011;29079;41.930;25.558;2023-11-21T16:04:52;9.60;;;8.00;;
7108;SDS011;29079;41.930;25.558;2023-11-21T16:07:40;15.25;;;8.30;;
7108;SDS011;29079;41.930;25.558;2023-11-21T16:10:28;14.23;;;8.00;;
7108;SDS011;29079;41.930;25.558;2023-11-21T16:13:16;11.93;;;8.88;;
7108;SDS011;29079;41.930;25.558;2023-11-21T16:16:07;19.67;;;11.90;;
7108;SDS011;29079;41.930;25.558;2023-11-21T16:18:55;20.10;;;14.25;;
7108;SDS011;29079;41.930;25.558;2023-11-21T16:21:44;24.27;;;12.23;;
7108;SDS011;29079;41.930;25.558;2023-11-21T16:24:33;24.63;;;12.15;;
7108;SDS011;29079;41.930;25.558;2023-11-21T16:27:23;22.80;;;12.90;;
7108;SDS011;29079;41.930;25.558;2023-11-21T16:30:12;25.02;;;13.60;;
7108;SDS011;29079;41.930;25.558;2023-11-21T16:33:01;21.15;;;11.55;;
7108;SDS011;29079;41.930;25.558;2023-11-21T16:35:50;13.93;;;9.65;;
7108;SDS011;29079;41.930;25.558;2023-11-21T16:38:38;21.70;;;10.88;;
7108;SDS011;29079;41.930;25.558;2023-11-21T16:41:26;15.27;;;10.07;;
7108;SDS011;29079;41.930;25.558;2023-11-21T16:44:15;19.67;;;11.00;;
7108;SDS011;29079;41.930;25.558;2023-11-21T16:47:04;21.52;;;11.02;;